• Join FlightAware (Why Join?)
  • Login
  • US Flag 
06:33AM EDT


 

Airport Tracker/Info


-or-


 

Live Flight TrackerFlight Track Log ✈ SWA1533 ✈ 18-May-2013 ✈ KLAX - KOAK

Flight Track Log - Related Links

Times and Time Zones

All times are in EDT time to prevent confusion due to time zone crossing. See the SWA1533 flight status page for this flight to view local times or setup timezone preferences in your user account.

Time Position Orientation Groundspeed Altitude Reporting Facility
EDT Latitude Longitude Course Direction KTS MPH feet Rate Location/Type
12:26PM 33.9500 -118.4833 253° West 205 236 1,600  Level Southern California TRACON
12:26PM 33.9428 -118.5119 253° West 214 246 2,500 2,340 Climbing Los Angeles Center
12:27PM 33.9356 -118.6003 264° West 261 300 5,300 2,700 Climbing Los Angeles Center
12:28PM 33.9731 -118.6769 301° West 266 306 8,100 1,740 Climbing Los Angeles Center
12:29PM 34.0400 -118.7083 339° North 272 313 9,000 420 Climbing Los Angeles Center
12:30PM 34.1042 -118.6600 32° Northeast 288 331 9,000 1,620 Level Los Angeles Center
12:31PM 34.1764 -118.6250 22° Northeast 280 322 12,400 2,700 Climbing Los Angeles Center
12:32PM 34.2533 -118.6139 North 285 328 14,700 1,680 Climbing Los Angeles Center
12:33PM 34.3575 -118.6414 348° North 341 392 15,900 1,680 Climbing Los Angeles Center
12:35PM 34.4500 -118.6853 339° North 356 410 18,200 1,980 Climbing Los Angeles Center
12:36PM 34.5447 -118.7311 338° Northwest 367 422 20,100 1,740 Climbing Los Angeles Center
12:37PM 34.6411 -118.7808 337° Northwest 377 434 21,900 1,740 Climbing Los Angeles Center
12:38PM 34.7411 -118.8314 337° Northwest 387 445 23,700 1,740 Climbing Los Angeles Center
12:39PM 34.8556 -118.9111 330° Northwest 407 468 25,600 2,160 Climbing Los Angeles Center
12:40PM 34.9378 -118.9906 322° Northwest 392 451 28,200 1,740 Climbing Los Angeles Center
12:41PM 35.0217 -119.0708 322° Northwest 384 442 29,300 1,320 Climbing Los Angeles Center
12:42PM 35.1039 -119.1553 320° Northwest 387 445 31,000 1,740 Climbing Los Angeles Center
12:43PM 35.1856 -119.2342 322° Northwest 376 433 32,900 1,440 Climbing Los Angeles Center
12:44PM 35.2650 -119.3114 322° Northwest 367 422 34,000 480 Climbing Los Angeles Center
12:45PM 35.3594 -119.4053 321° Northwest 366 421 34,000  Level Los Angeles Center
12:45PM 35.3897 -119.4358 321° Northwest 368 423 34,000  Level Oakland Center
12:46PM 35.4714 -119.5156 322° Northwest 376 433 34,000  Level Oakland Center
12:47PM 35.5528 -119.5969 321° Northwest 378 435 34,000  Level Oakland Center
12:48PM 35.6356 -119.6783 321° Northwest 384 442 34,000  Level Oakland Center
12:49PM 35.7158 -119.7603 320° Northwest 379 436 34,000  Level Oakland Center
12:50PM 35.7978 -119.8408 321° Northwest 380 437 34,000  Level Oakland Center
12:51PM 35.8956 -119.9397 321° Northwest 381 438 34,000  Level Oakland Center
12:52PM 35.9750 -120.0217 320° Northwest 377 434 34,000  Level Oakland Center
12:53PM 36.0553 -120.1008 321° Northwest 371 427 34,000  Level Oakland Center
12:54PM 36.1356 -120.1825 321° Northwest 374 430 34,000  Level Oakland Center
12:55PM 36.2167 -120.2639 321° Northwest 377 434 34,000  Level Oakland Center
12:56PM 36.2969 -120.3478 320° Northwest 379 436 34,000  Level Oakland Center
12:58PM 36.3772 -120.4311 320° Northwest 378 435 34,000 -60 Level Oakland Center
12:59PM 36.4589 -120.5142 321° Northwest 380 437 33,900 -300 Descending Oakland Center
01:00PM 36.5522 -120.6108 320° Northwest 365 420 33,500 -1,920 Descending Oakland Center
01:01PM 36.6308 -120.6925 320° Northwest 369 425 30,100 -3,000 Descending Oakland Center
01:02PM 36.7103 -120.7767 320° Northwest 376 433 27,400 -2,460 Descending Oakland Center
01:03PM 36.7842 -120.8597 318° Northwest 364 419 25,100 -2,220 Descending Oakland Center
01:04PM 36.8528 -120.9378 318° Northwest 344 396 23,000 -2,100 Descending Oakland Center
01:05PM 36.9200 -121.0161 317° Northwest 333 383 20,900 -2,040 Descending Oakland Center
01:06PM 36.9853 -121.0897 318° Northwest 321 369 18,900 -1,980 Descending Oakland Center
01:07PM 37.0531 -121.1681 317° Northwest 307 353 16,900 -1,980 Descending Oakland Center
01:08PM 37.1133 -121.2356 318° Northwest 314 361 14,900 -2,160 Descending Oakland Center
01:09PM 37.1842 -121.3183 317° Northwest 341 392 12,600 -2,280 Descending Oakland Center
01:10PM 37.2656 -121.4128 317° Northwest 329 379 10,300 -1,380 Descending Oakland Center
01:11PM 37.3253 -121.4833 317° Northwest 295 339 9,800 -660 Descending Oakland Center
01:12PM 37.3722 -121.5375 317° Northwest 268 308 9,000 -840 Descending Oakland Center
01:12PM 37.4167 -121.5833 321° Northwest 270 311 8,500 -1,020 Descending Northern Cal TRACON
01:13PM 37.4667 -121.6333 322° Northwest 267 307 7,600 -960 Descending Northern Cal TRACON
01:14PM 37.5000 -121.7167 297° West 265 305 6,700 -840 Descending Northern Cal TRACON
01:15PM 37.5167 -121.8000 284° West 248 285 6,000 -960 Descending Northern Cal TRACON
01:16PM 37.5333 -121.8833 284° West 246 283 4,800 -1,020 Descending Northern Cal TRACON
01:17PM 37.5500 -121.9667 284° West 230 265 4,000 -420 Descending Northern Cal TRACON
01:18PM 37.5667 -122.0333 288° West 192 221 4,000 -480 Level Northern Cal TRACON
01:19PM 37.6000 -122.0667 322° Northwest 196 226 3,100 -960 Descending Northern Cal TRACON
01:20PM 37.6267 -122.1025 313° West 195 224 2,400 -1,020 Descending Oakland Center
01:21PM 37.6561 -122.1464 310° West 181 208 1,400 -900 Descending Oakland Center
01:22PM 37.6817 -122.1853 310° West 162 186 600 9,120 Descending Oakland Center
01:23PM 37.7056 -122.2206 311° West 146 168 20,000 19,080 Climbing Oakland Center
01:25PM 37.7167 -122.2167 270° West  Level FlightAware Approximate
01:32PM 37.7213 -122.2207 270° West  Level Estimated